Bellefonte, Delaware
Current Conditions -  °F | °C
As of 3:51 PM on Wednesday 26 Nov 2014 (Local Time) from KILG Reporting Station
Light Rain Light Rain  
Wind Chill: 28°   Ceiling: 1000
Heat Index: 37°   Visibility: 10mi
Dew Point: 33°   Wind: 15mph
Humidity: 86%   Direction: 360°N
Pressure: 29.82"   Gusts: 23mph
Location:  39.772°N, 75.4963°W
Report Text: KILG 262051Z 36013G20KT 10SM -RA BKN010 OVC026 03/01 A2982 RMK AO2 SLP098 P0003 60016 T00280006 56046
Loading
Personal Weather Stations






























Interactive Weather Map New forecast layout! Learn more

10-Day Weather Forecast

Advertisements
Track Severe Weather on mobile